sensor_id;sensor_type;location;lat;lon;timestamp;pressure;altitude;pressure_sealevel;temperature;humidity
69245;BME280;56357;52.304;4.870;2024-01-10T00:02:06;103494.13;;;15.56;44.09
69245;BME280;56357;52.304;4.870;2024-01-10T00:04:32;103485.28;;;15.53;44.60
69245;BME280;56357;52.304;4.870;2024-01-10T00:06:58;103480.16;;;15.56;44.38
69245;BME280;56357;52.304;4.870;2024-01-10T00:09:25;103481.09;;;15.64;43.75
69245;BME280;56357;52.304;4.870;2024-01-10T00:11:51;103487.16;;;15.46;45.01
69245;BME280;56357;52.304;4.870;2024-01-10T00:14:17;103482.75;;;15.58;44.30
69245;BME280;56357;52.304;4.870;2024-01-10T00:16:44;103473.69;;;15.56;43.48
69245;BME280;56357;52.304;4.870;2024-01-10T00:19:10;103473.78;;;15.41;44.28
69245;BME280;56357;52.304;4.870;2024-01-10T00:21:36;103465.72;;;15.53;42.44
69245;BME280;56357;52.304;4.870;2024-01-10T00:24:03;103463.50;;;15.70;44.36
69245;BME280;56357;52.304;4.870;2024-01-10T00:26:29;103458.81;;;15.49;43.57
69245;BME280;56357;52.304;4.870;2024-01-10T00:28:56;103467.59;;;15.46;43.58
69245;BME280;56357;52.304;4.870;2024-01-10T00:31:22;103460.94;;;15.47;44.31
69245;BME280;56357;52.304;4.870;2024-01-10T00:33:49;103461.41;;;15.50;43.64
69245;BME280;56357;52.304;4.870;2024-01-10T00:36:15;103460.06;;;15.46;44.97
69245;BME280;56357;52.304;4.870;2024-01-10T00:38:42;103452.78;;;15.45;43.98
69245;BME280;56357;52.304;4.870;2024-01-10T00:41:08;103461.25;;;15.37;44.50
69245;BME280;56357;52.304;4.870;2024-01-10T00:43:34;103450.97;;;15.59;42.77
69245;BME280;56357;52.304;4.870;2024-01-10T00:46:01;103448.97;;;15.53;43.33
69245;BME280;56357;52.304;4.870;2024-01-10T00:48:28;103445.38;;;15.38;44.22
69245;BME280;56357;52.304;4.870;2024-01-10T00:50:54;103444.28;;;15.39;43.96
69245;BME280;56357;52.304;4.870;2024-01-10T00:53:20;103446.56;;;15.29;43.59
69245;BME280;56357;52.304;4.870;2024-01-10T00:55:47;103449.06;;;15.24;44.07
69245;BME280;56357;52.304;4.870;2024-01-10T00:58:14;103441.78;;;15.23;44.23
69245;BME280;56357;52.304;4.870;2024-01-10T01:00:40;103441.25;;;15.34;44.19
69245;BME280;56357;52.304;4.870;2024-01-10T01:03:07;103443.63;;;15.16;44.54
69245;BME280;56357;52.304;4.870;2024-01-10T01:05:33;103446.41;;;15.37;43.69
69245;BME280;56357;52.304;4.870;2024-01-10T01:07:59;103432.59;;;15.08;43.82
69245;BME280;56357;52.304;4.870;2024-01-10T01:10:26;103446.41;;;15.16;43.92
69245;BME280;56357;52.304;4.870;2024-01-10T01:12:52;103450.75;;;15.18;44.33
69245;BME280;56357;52.304;4.870;2024-01-10T01:15:18;103446.50;;;15.22;43.90
69245;BME280;56357;52.304;4.870;2024-01-10T01:17:45;103444.56;;;15.23;43.35
69245;BME280;56357;52.304;4.870;2024-01-10T01:20:11;103451.72;;;15.11;43.14
69245;BME280;56357;52.304;4.870;2024-01-10T01:22:37;103444.44;;;15.10;43.34
69245;BME280;56357;52.304;4.870;2024-01-10T01:25:04;103454.19;;;15.20;42.79
69245;BME280;56357;52.304;4.870;2024-01-10T01:27:30;103443.09;;;15.06;43.25
69245;BME280;56357;52.304;4.870;2024-01-10T01:29:57;103448.16;;;15.17;43.23
69245;BME280;56357;52.304;4.870;2024-01-10T01:32:23;103453.19;;;15.07;43.35
69245;BME280;56357;52.304;4.870;2024-01-10T01:34:49;103447.75;;;15.20;42.89
69245;BME280;56357;52.304;4.870;2024-01-10T01:37:16;103458.88;;;14.99;43.46
69245;BME280;56357;52.304;4.870;2024-01-10T01:39:42;103446.25;;;14.82;43.62
69245;BME280;56357;52.304;4.870;2024-01-10T01:42:08;103440.53;;;14.90;43.01
69245;BME280;56357;52.304;4.870;2024-01-10T01:44:35;103438.88;;;14.95;43.01
69245;BME280;56357;52.304;4.870;2024-01-10T01:47:01;103439.19;;;15.00;43.17
69245;BME280;56357;52.304;4.870;2024-01-10T01:49:28;103437.63;;;14.98;43.08
69245;BME280;56357;52.304;4.870;2024-01-10T01:51:56;103441.34;;;14.84;43.45
69245;BME280;56357;52.304;4.870;2024-01-10T01:54:22;103435.22;;;14.95;43.41
69245;BME280;56357;52.304;4.870;2024-01-10T01:56:49;103427.47;;;14.90;43.42
69245;BME280;56357;52.304;4.870;2024-01-10T01:59:16;103428.81;;;14.94;44.21
69245;BME280;56357;52.304;4.870;2024-01-10T02:01:43;103427.84;;;14.87;42.44
69245;BME280;56357;52.304;4.870;2024-01-10T02:04:09;103428.47;;;14.68;44.51
69245;BME280;56357;52.304;4.870;2024-01-10T02:06:35;103430.78;;;14.79;43.58
69245;BME280;56357;52.304;4.870;2024-01-10T02:09:02;103429.78;;;14.87;43.22
69245;BME280;56357;52.304;4.870;2024-01-10T02:11:29;103432.09;;;14.83;43.29
69245;BME280;56357;52.304;4.870;2024-01-10T02:13:57;103440.81;;;14.59;43.70
69245;BME280;56357;52.304;4.870;2024-01-10T02:16:23;103429.84;;;14.57;43.45
69245;BME280;56357;52.304;4.870;2024-01-10T02:18:50;103430.13;;;14.62;43.60
69245;BME280;56357;52.304;4.870;2024-01-10T02:21:20;103427.63;;;14.68;43.43
69245;BME280;56357;52.304;4.870;2024-01-10T02:23:47;103422.94;;;14.53;43.43
69245;BME280;56357;52.304;4.870;2024-01-10T02:26:14;103438.44;;;14.56;43.83
69245;BME280;56357;52.304;4.870;2024-01-10T02:28:41;103422.53;;;14.56;43.80
69245;BME280;56357;52.304;4.870;2024-01-10T02:31:07;103406.78;;;14.63;42.91
69245;BME280;56357;52.304;4.870;2024-01-10T02:33:33;103417.06;;;14.48;42.95
69245;BME280;56357;52.304;4.870;2024-01-10T02:36:00;103408.31;;;14.51;42.94
69245;BME280;56357;52.304;4.870;2024-01-10T02:38:26;103408.44;;;14.43;43.62
69245;BME280;56357;52.304;4.870;2024-01-10T02:40:53;103403.78;;;14.50;43.25
69245;BME280;56357;52.304;4.870;2024-01-10T02:43:21;103403.78;;;14.50;42.68
69245;BME280;56357;52.304;4.870;2024-01-10T02:45:47;103400.88;;;14.73;43.02
69245;BME280;56357;52.304;4.870;2024-01-10T02:48:13;103388.03;;;14.57;43.64
69245;BME280;56357;52.304;4.870;2024-01-10T02:50:40;103409.78;;;14.47;43.27
69245;BME280;56357;52.304;4.870;2024-01-10T02:53:06;103397.53;;;14.48;43.77
69245;BME280;56357;52.304;4.870;2024-01-10T02:55:33;103410.28;;;14.36;43.08
69245;BME280;56357;52.304;4.870;2024-01-10T02:57:59;103400.44;;;14.26;42.99
69245;BME280;56357;52.304;4.870;2024-01-10T03:00:25;103403.06;;;14.42;43.63
69245;BME280;56357;52.304;4.870;2024-01-10T03:02:52;103398.06;;;14.37;43.15
69245;BME280;56357;52.304;4.870;2024-01-10T03:05:18;103389.00;;;14.50;43.20
69245;BME280;56357;52.304;4.870;2024-01-10T03:07:44;103383.44;;;14.50;43.11
69245;BME280;56357;52.304;4.870;2024-01-10T03:10:11;103395.63;;;14.63;42.96
69245;BME280;56357;52.304;4.870;2024-01-10T03:12:37;103378.50;;;14.88;42.46
69245;BME280;56357;52.304;4.870;2024-01-10T03:15:05;103379.56;;;14.87;42.09
69245;BME280;56357;52.304;4.870;2024-01-10T03:17:32;103379.84;;;14.92;43.12
69245;BME280;56357;52.304;4.870;2024-01-10T03:19:59;103376.16;;;14.91;42.35
69245;BME280;56357;52.304;4.870;2024-01-10T03:22:25;103380.38;;;14.81;42.84
69245;BME280;56357;52.304;4.870;2024-01-10T03:24:51;103365.06;;;15.19;42.98
69245;BME280;56357;52.304;4.870;2024-01-10T03:27:18;103369.25;;;14.87;42.92
69245;BME280;56357;52.304;4.870;2024-01-10T03:29:44;103363.09;;;15.13;42.57
69245;BME280;56357;52.304;4.870;2024-01-10T03:32:11;103358.03;;;15.23;42.67
69245;BME280;56357;52.304;4.870;2024-01-10T03:34:37;103357.97;;;15.16;41.99
69245;BME280;56357;52.304;4.870;2024-01-10T03:37:03;103354.91;;;15.11;42.31
69245;BME280;56357;52.304;4.870;2024-01-10T03:39:30;103362.34;;;15.04;42.56
69245;BME280;56357;52.304;4.870;2024-01-10T03:41:57;103359.41;;;15.12;42.87
69245;BME280;56357;52.304;4.870;2024-01-10T03:44:23;103352.31;;;15.31;42.97
69245;BME280;56357;52.304;4.870;2024-01-10T03:46:49;103352.06;;;15.05;42.59
69245;BME280;56357;52.304;4.870;2024-01-10T03:49:16;103349.19;;;15.19;41.94
69245;BME280;56357;52.304;4.870;2024-01-10T03:51:42;103351.56;;;15.22;43.27
69245;BME280;56357;52.304;4.870;2024-01-10T03:54:09;103346.75;;;15.10;42.17
69245;BME280;56357;52.304;4.870;2024-01-10T03:56:35;103344.47;;;15.20;43.54
69245;BME280;56357;52.304;4.870;2024-01-10T03:59:01;103348.47;;;15.11;42.53
69245;BME280;56357;52.304;4.870;2024-01-10T04:01:28;103333.16;;;15.28;42.42
69245;BME280;56357;52.304;4.870;2024-01-10T04:03:53;103333.56;;;15.25;42.64
69245;BME280;56357;52.304;4.870;2024-01-10T04:06:20;103346.06;;;15.29;42.88
69245;BME280;56357;52.304;4.870;2024-01-10T04:08:46;103338.69;;;15.21;43.70
69245;BME280;56357;52.304;4.870;2024-01-10T04:11:12;103347.41;;;15.33;42.48
69245;BME280;56357;52.304;4.870;2024-01-10T04:13:39;103336.34;;;15.46;42.55
69245;BME280;56357;52.304;4.870;2024-01-10T04:16:05;103332.78;;;15.31;43.44
69245;BME280;56357;52.304;4.870;2024-01-10T04:18:31;103334.69;;;15.30;42.12
69245;BME280;56357;52.304;4.870;2024-01-10T04:20:58;103337.09;;;15.61;43.48
69245;BME280;56357;52.304;4.870;2024-01-10T04:23:24;103336.22;;;15.33;42.71
69245;BME280;56357;52.304;4.870;2024-01-10T04:25:50;103338.13;;;15.53;42.04
69245;BME280;56357;52.304;4.870;2024-01-10T04:28:17;103338.09;;;15.81;42.98
69245;BME280;56357;52.304;4.870;2024-01-10T04:30:43;103344.16;;;15.57;41.78
69245;BME280;56357;52.304;4.870;2024-01-10T04:33:09;103339.53;;;15.71;42.52
69245;BME280;56357;52.304;4.870;2024-01-10T04:35:36;103331.72;;;15.60;42.67
69245;BME280;56357;52.304;4.870;2024-01-10T04:38:02;103344.25;;;15.70;41.80
69245;BME280;56357;52.304;4.870;2024-01-10T04:40:28;103334.41;;;15.74;42.73
69245;BME280;56357;52.304;4.870;2024-01-10T04:42:55;103335.19;;;15.62;42.50
69245;BME280;56357;52.304;4.870;2024-01-10T04:45:21;103332.03;;;15.43;43.69
69245;BME280;56357;52.304;4.870;2024-01-10T04:47:47;103324.75;;;15.49;43.07
69245;BME280;56357;52.304;4.870;2024-01-10T04:50:14;103310.56;;;15.78;42.31
69245;BME280;56357;52.304;4.870;2024-01-10T04:52:40;103318.72;;;15.73;42.96
69245;BME280;56357;52.304;4.870;2024-01-10T04:55:07;103315.28;;;15.78;42.56
69245;BME280;56357;52.304;4.870;2024-01-10T04:57:34;103323.44;;;15.79;43.32
69245;BME280;56357;52.304;4.870;2024-01-10T04:59:59;103325.47;;;15.92;42.80
69245;BME280;56357;52.304;4.870;2024-01-10T05:02:25;103323.28;;;15.81;43.39
69245;BME280;56357;52.304;4.870;2024-01-10T05:04:52;103325.50;;;15.98;43.25
69245;BME280;56357;52.304;4.870;2024-01-10T05:07:18;103317.69;;;15.87;42.25
69245;BME280;56357;52.304;4.870;2024-01-10T05:09:44;103318.44;;;16.02;43.40
69245;BME280;56357;52.304;4.870;2024-01-10T05:12:11;103313.72;;;16.03;42.34
69245;BME280;56357;52.304;4.870;2024-01-10T05:14:37;103310.13;;;16.15;41.71
69245;BME280;56357;52.304;4.870;2024-01-10T05:17:04;103315.19;;;15.99;43.40
69245;BME280;56357;52.304;4.870;2024-01-10T05:19:30;103299.72;;;16.03;42.01
69245;BME280;56357;52.304;4.870;2024-01-10T05:21:56;103300.59;;;16.03;42.24
69245;BME280;56357;52.304;4.870;2024-01-10T05:24:23;103302.03;;;15.93;42.30
69245;BME280;56357;52.304;4.870;2024-01-10T05:26:50;103306.72;;;16.26;42.84
69245;BME280;56357;52.304;4.870;2024-01-10T05:29:16;103309.22;;;16.08;42.21
69245;BME280;56357;52.304;4.870;2024-01-10T05:31:44;103299.78;;;16.09;42.83
69245;BME280;56357;52.304;4.870;2024-01-10T05:34:11;103301.66;;;16.02;43.71
69245;BME280;56357;52.304;4.870;2024-01-10T05:36:37;103308.22;;;16.22;42.99
69245;BME280;56357;52.304;4.870;2024-01-10T05:39:04;103307.34;;;16.22;43.19
69245;BME280;56357;52.304;4.870;2024-01-10T05:41:30;103308.38;;;16.08;42.90
69245;BME280;56357;52.304;4.870;2024-01-10T05:43:57;103300.59;;;16.10;42.75
69245;BME280;56357;52.304;4.870;2024-01-10T05:46:23;103299.81;;;16.22;42.10
69245;BME280;56357;52.304;4.870;2024-01-10T05:48:49;103290.84;;;16.46;42.44
69245;BME280;56357;52.304;4.870;2024-01-10T05:51:16;103294.66;;;16.26;43.43
69245;BME280;56357;52.304;4.870;2024-01-10T05:53:42;103297.19;;;16.14;42.27
69245;BME280;56357;52.304;4.870;2024-01-10T05:56:08;103301.16;;;16.39;43.22
69245;BME280;56357;52.304;4.870;2024-01-10T05:58:35;103303.66;;;16.21;42.76
69245;BME280;56357;52.304;4.870;2024-01-10T06:01:01;103304.31;;;16.23;42.76
69245;BME280;56357;52.304;4.870;2024-01-10T06:03:28;103305.38;;;16.16;42.64
69245;BME280;56357;52.304;4.870;2024-01-10T06:05:55;103306.72;;;16.26;42.28
69245;BME280;56357;52.304;4.870;2024-01-10T06:08:21;103303.94;;;16.26;42.40
69245;BME280;56357;52.304;4.870;2024-01-10T06:10:50;103311.28;;;15.93;42.83
69245;BME280;56357;52.304;4.870;2024-01-10T06:13:17;103303.75;;;16.34;43.10
69245;BME280;56357;52.304;4.870;2024-01-10T06:15:43;103303.66;;;16.21;43.13
69245;BME280;56357;52.304;4.870;2024-01-10T06:18:10;103314.94;;;16.41;44.52
69245;BME280;56357;52.304;4.870;2024-01-10T06:20:36;103299.78;;;16.16;42.43
69245;BME280;56357;52.304;4.870;2024-01-10T06:23:04;103298.81;;;16.36;42.95
69245;BME280;56357;52.304;4.870;2024-01-10T06:25:30;103302.19;;;16.25;43.49
69245;BME280;56357;52.304;4.870;2024-01-10T06:27:57;103295.31;;;16.28;43.78
69245;BME280;56357;52.304;4.870;2024-01-10T06:30:23;103289.81;;;16.54;42.76
69245;BME280;56357;52.304;4.870;2024-01-10T06:32:49;103290.25;;;16.51;44.02
69245;BME280;56357;52.304;4.870;2024-01-10T06:35:16;103289.59;;;16.49;42.27
69245;BME280;56357;52.304;4.870;2024-01-10T06:37:42;103287.50;;;16.58;42.51
69245;BME280;56357;52.304;4.870;2024-01-10T06:40:09;103281.00;;;15.97;41.93
69245;BME280;56357;52.304;4.870;2024-01-10T06:42:36;103290.97;;;16.12;43.16
69245;BME280;56357;52.304;4.870;2024-01-10T06:45:04;103301.16;;;16.39;43.24
69245;BME280;56357;52.304;4.870;2024-01-10T06:47:32;103290.06;;;16.59;42.29
69245;BME280;56357;52.304;4.870;2024-01-10T06:49:59;103292.97;;;16.25;42.46
69245;BME280;56357;52.304;4.870;2024-01-10T06:52:25;103301.19;;;16.46;43.71
69245;BME280;56357;52.304;4.870;2024-01-10T06:54:52;103297.78;;;16.51;43.22
69245;BME280;56357;52.304;4.870;2024-01-10T06:57:18;103293.97;;;16.65;44.40
69245;BME280;56357;52.304;4.870;2024-01-10T06:59:44;103294.06;;;16.37;43.83
69245;BME280;56357;52.304;4.870;2024-01-10T07:02:11;103289.94;;;16.26;44.39
69245;BME280;56357;52.304;4.870;2024-01-10T07:04:38;103296.81;;;16.24;43.90
69245;BME280;56357;52.304;4.870;2024-01-10T07:07:04;103298.72;;;16.17;43.64
69245;BME280;56357;52.304;4.870;2024-01-10T07:09:30;103294.66;;;16.19;45.27
69245;BME280;56357;52.304;4.870;2024-01-10T07:11:57;103297.50;;;16.39;43.00
69245;BME280;56357;52.304;4.870;2024-01-10T07:14:23;103296.94;;;16.50;43.46
69245;BME280;56357;52.304;4.870;2024-01-10T07:16:49;103298.88;;;16.56;42.28
69245;BME280;56357;52.304;4.870;2024-01-10T07:19:17;103300.19;;;16.54;42.33
69245;BME280;56357;52.304;4.870;2024-01-10T07:21:43;103306.69;;;16.13;41.83
69245;BME280;56357;52.304;4.870;2024-01-10T07:24:10;103307.50;;;16.14;41.75
69245;BME280;56357;52.304;4.870;2024-01-10T07:26:37;103310.13;;;16.15;43.57
69245;BME280;56357;52.304;4.870;2024-01-10T07:29:03;103307.06;;;16.10;42.58
69245;BME280;56357;52.304;4.870;2024-01-10T07:31:33;103300.66;;;16.16;43.28
69245;BME280;56357;52.304;4.870;2024-01-10T07:34:00;103307.69;;;16.53;42.79
69245;BME280;56357;52.304;4.870;2024-01-10T07:36:26;103309.53;;;16.26;43.30
69245;BME280;56357;52.304;4.870;2024-01-10T07:38:55;103310.13;;;16.22;43.22
69245;BME280;56357;52.304;4.870;2024-01-10T07:41:22;103316.72;;;16.48;42.58
69245;BME280;56357;52.304;4.870;2024-01-10T07:43:49;103321.78;;;16.32;42.96
69245;BME280;56357;52.304;4.870;2024-01-10T07:46:15;103318.38;;;16.36;43.63
69245;BME280;56357;52.304;4.870;2024-01-10T07:48:42;103316.47;;;16.43;43.25
69245;BME280;56357;52.304;4.870;2024-01-10T07:51:08;103328.84;;;16.82;43.40
69245;BME280;56357;52.304;4.870;2024-01-10T07:53:35;103325.78;;;16.57;43.72
69245;BME280;56357;52.304;4.870;2024-01-10T07:56:02;103329.25;;;16.66;43.83
69245;BME280;56357;52.304;4.870;2024-01-10T07:58:29;103332.69;;;16.61;44.13
69245;BME280;56357;52.304;4.870;2024-01-10T08:00:55;103325.50;;;16.45;46.09
69245;BME280;56357;52.304;4.870;2024-01-10T08:03:22;103324.41;;;16.46;46.46
69245;BME280;56357;52.304;4.870;2024-01-10T08:05:49;103326.50;;;16.25;46.01
69245;BME280;56357;52.304;4.870;2024-01-10T08:08:15;103337.47;;;16.26;45.86
69245;BME280;56357;52.304;4.870;2024-01-10T08:10:42;103342.91;;;16.34;44.75
69245;BME280;56357;52.304;4.870;2024-01-10T08:13:08;103339.34;;;16.13;44.94
69245;BME280;56357;52.304;4.870;2024-01-10T08:15:36;103336.13;;;16.09;46.07
69245;BME280;56357;52.304;4.870;2024-01-10T08:18:02;103331.28;;;16.37;47.05
69245;BME280;56357;52.304;4.870;2024-01-10T08:20:29;103336.81;;;16.24;45.47
69245;BME280;56357;52.304;4.870;2024-01-10T08:22:55;103339.28;;;16.00;45.47
69245;BME280;56357;52.304;4.870;2024-01-10T08:25:22;103334.81;;;16.05;45.03
69245;BME280;56357;52.304;4.870;2024-01-10T08:27:49;103329.53;;;16.30;46.28
69245;BME280;56357;52.304;4.870;2024-01-10T08:30:17;103326.72;;;16.30;45.11
69245;BME280;56357;52.304;4.870;2024-01-10T08:32:44;103335.25;;;16.09;45.71
69245;BME280;56357;52.304;4.870;2024-01-10T08:35:11;103342.25;;;16.32;46.70
69245;BME280;56357;52.304;4.870;2024-01-10T08:37:37;103335.84;;;16.04;45.71
69245;BME280;56357;52.304;4.870;2024-01-10T08:40:09;103340.06;;;16.28;47.25
69245;BME280;56357;52.304;4.870;2024-01-10T08:42:37;103331.06;;;16.39;44.62
69245;BME280;56357;52.304;4.870;2024-01-10T08:45:04;103333.81;;;16.19;44.32
69245;BME280;56357;52.304;4.870;2024-01-10T08:47:31;103327.66;;;16.43;45.33
69245;BME280;56357;52.304;4.870;2024-01-10T08:50:01;103332.06;;;16.18;44.57
69245;BME280;56357;52.304;4.870;2024-01-10T08:52:32;103329.75;;;16.28;45.66
69245;BME280;56357;52.304;4.870;2024-01-10T08:54:59;103326.56;;;16.38;44.22
69245;BME280;56357;52.304;4.870;2024-01-10T08:57:25;103323.09;;;16.36;45.10
69245;BME280;56357;52.304;4.870;2024-01-10T08:59:53;103329.56;;;16.36;44.72
69245;BME280;56357;52.304;4.870;2024-01-10T09:02:19;103334.94;;;16.38;45.44
69245;BME280;56357;52.304;4.870;2024-01-10T09:04:46;103326.97;;;16.35;45.46
69245;BME280;56357;52.304;4.870;2024-01-10T09:07:12;103326.66;;;16.58;45.49
69245;BME280;56357;52.304;4.870;2024-01-10T09:09:39;103321.91;;;16.58;46.66
69245;BME280;56357;52.304;4.870;2024-01-10T09:12:05;103315.91;;;16.68;43.95
69245;BME280;56357;52.304;4.870;2024-01-10T09:14:32;103307.19;;;16.36;44.19
69245;BME280;56357;52.304;4.870;2024-01-10T09:16:58;103310.72;;;16.52;43.50
69245;BME280;56357;52.304;4.870;2024-01-10T09:19:31;103312.28;;;16.80;44.94
69245;BME280;56357;52.304;4.870;2024-01-10T09:21:58;103309.91;;;16.71;44.48
69245;BME280;56357;52.304;4.870;2024-01-10T09:24:24;103308.16;;;16.63;44.40
69245;BME280;56357;52.304;4.870;2024-01-10T09:26:52;103299.56;;;16.78;43.62
69245;BME280;56357;52.304;4.870;2024-01-10T09:29:18;103310.31;;;16.61;44.87
69245;BME280;56357;52.304;4.870;2024-01-10T09:31:45;103308.75;;;16.52;43.12
69245;BME280;56357;52.304;4.870;2024-01-10T09:34:11;103319.50;;;16.48;43.38
69245;BME280;56357;52.304;4.870;2024-01-10T09:36:38;103326.16;;;16.47;42.95
69245;BME280;56357;52.304;4.870;2024-01-10T09:39:04;103317.84;;;16.67;43.18
69245;BME280;56357;52.304;4.870;2024-01-10T09:41:31;103309.03;;;16.70;45.05
69245;BME280;56357;52.304;4.870;2024-01-10T09:44:03;103316.38;;;16.71;42.92
69245;BME280;56357;52.304;4.870;2024-01-10T09:46:32;103316.69;;;16.42;44.12
69245;BME280;56357;52.304;4.870;2024-01-10T09:48:59;103320.28;;;17.03;44.19
69245;BME280;56357;52.304;4.870;2024-01-10T09:51:26;103315.50;;;16.84;43.96
69245;BME280;56357;52.304;4.870;2024-01-10T09:53:56;103327.34;;;16.86;42.47
69245;BME280;56357;52.304;4.870;2024-01-10T09:56:24;103317.66;;;16.82;42.83
69245;BME280;56357;52.304;4.870;2024-01-10T09:58:51;103311.66;;;16.98;42.61
69245;BME280;56357;52.304;4.870;2024-01-10T10:01:20;103318.56;;;17.54;43.27
69245;BME280;56357;52.304;4.870;2024-01-10T10:03:48;103320.50;;;17.14;42.86
69245;BME280;56357;52.304;4.870;2024-01-10T10:06:16;103312.53;;;17.24;43.95
69245;BME280;56357;52.304;4.870;2024-01-10T10:08:42;103314.88;;;17.40;43.95
69245;BME280;56357;52.304;4.870;2024-01-10T10:11:13;103322.47;;;17.53;42.56
69245;BME280;56357;52.304;4.870;2024-01-10T10:13:40;103303.03;;;17.58;42.46
69245;BME280;56357;52.304;4.870;2024-01-10T10:16:07;103295.50;;;17.52;42.81
69245;BME280;56357;52.304;4.870;2024-01-10T10:18:35;103297.44;;;17.32;43.07
69245;BME280;56357;52.304;4.870;2024-01-10T10:21:12;103292.28;;;17.09;43.29
69245;BME280;56357;52.304;4.870;2024-01-10T10:23:42;103297.88;;;17.16;42.78
69245;BME280;56357;52.304;4.870;2024-01-10T10:26:16;103306.91;;;17.44;43.39
69245;BME280;56357;52.304;4.870;2024-01-10T10:28:46;103305.00;;;17.25;42.04
69245;BME280;56357;52.304;4.870;2024-01-10T10:31:14;103303.25;;;17.50;41.94
69245;BME280;56357;52.304;4.870;2024-01-10T10:33:42;103305.63;;;17.33;42.95
69245;BME280;56357;52.304;4.870;2024-01-10T10:36:08;103303.03;;;17.58;43.22
69245;BME280;56357;52.304;4.870;2024-01-10T10:38:36;103309.28;;;17.47;42.69
69245;BME280;56357;52.304;4.870;2024-01-10T10:41:06;103306.91;;;17.70;43.80
69245;BME280;56357;52.304;4.870;2024-01-10T10:43:36;103305.63;;;17.73;44.12
69245;BME280;56357;52.304;4.870;2024-01-10T10:46:04;103309.91;;;17.75;43.23
69245;BME280;56357;52.304;4.870;2024-01-10T10:48:32;103294.31;;;17.92;42.04
69245;BME280;56357;52.304;4.870;2024-01-10T10:51:04;103306.81;;;18.03;43.75
69245;BME280;56357;52.304;4.870;2024-01-10T10:53:34;103304.28;;;17.88;44.03
69245;BME280;56357;52.304;4.870;2024-01-10T10:56:03;103302.81;;;17.73;44.59
69245;BME280;56357;52.304;4.870;2024-01-10T10:58:33;103302.84;;;17.53;43.75
69245;BME280;56357;52.304;4.870;2024-01-10T11:01:03;103303.44;;;17.75;43.36
69245;BME280;56357;52.304;4.870;2024-01-10T11:03:30;103304.28;;;17.75;43.25
69245;BME280;56357;52.304;4.870;2024-01-10T11:05:58;103318.94;;;17.77;45.24
69245;BME280;56357;52.304;4.870;2024-01-10T11:08:26;103317.00;;;17.84;43.82
69245;BME280;56357;52.304;4.870;2024-01-10T11:10:55;103315.88;;;17.98;43.65
69245;BME280;56357;52.304;4.870;2024-01-10T11:24:47;103291.81;;;18.28;43.04
69245;BME280;56357;52.304;4.870;2024-01-10T11:27:15;103288.88;;;18.04;45.03
69245;BME280;56357;52.304;4.870;2024-01-10T11:29:45;103288.88;;;18.10;44.61
69245;BME280;56357;52.304;4.870;2024-01-10T11:32:13;103274.84;;;18.10;44.75
69245;BME280;56357;52.304;4.870;2024-01-10T11:34:59;103280.38;;;18.30;44.70
69245;BME280;56357;52.304;4.870;2024-01-10T11:37:38;103278.19;;;18.32;44.81
69245;BME280;56357;52.304;4.870;2024-01-10T11:40:11;103271.25;;;18.35;44.45
69245;BME280;56357;52.304;4.870;2024-01-10T11:42:46;103269.56;;;18.27;44.86
69245;BME280;56357;52.304;4.870;2024-01-10T11:48:31;103276.38;;;18.06;44.76
69245;BME280;56357;52.304;4.870;2024-01-10T11:50:58;103276.25;;;17.88;41.78
69245;BME280;56357;52.304;4.870;2024-01-10T11:53:41;103273.56;;;18.13;41.90
69245;BME280;56357;52.304;4.870;2024-01-10T11:56:12;103266.25;;;18.05;41.59
69245;BME280;56357;52.304;4.870;2024-01-10T11:59:02;103278.13;;;18.01;41.70
69245;BME280;56357;52.304;4.870;2024-01-10T12:01:29;103274.88;;;18.04;42.57
69245;BME280;56357;52.304;4.870;2024-01-10T12:03:57;103268.53;;;17.71;42.61
69245;BME280;56357;52.304;4.870;2024-01-10T12:06:25;103258.97;;;17.91;42.30
69245;BME280;56357;52.304;4.870;2024-01-10T12:08:51;103265.78;;;18.08;42.47
69245;BME280;56357;52.304;4.870;2024-01-10T12:11:18;103265.78;;;18.08;42.34
69245;BME280;56357;52.304;4.870;2024-01-10T12:13:44;103252.56;;;18.28;42.67
69245;BME280;56357;52.304;4.870;2024-01-10T12:16:13;103252.59;;;18.15;41.08
69245;BME280;56357;52.304;4.870;2024-01-10T12:18:42;103262.41;;;17.93;43.04
69245;BME280;56357;52.304;4.870;2024-01-10T12:21:08;103249.09;;;17.82;42.01
69245;BME280;56357;52.304;4.870;2024-01-10T12:23:36;103243.38;;;18.08;44.23
69245;BME280;56357;52.304;4.870;2024-01-10T12:26:05;103254.25;;;17.85;42.72
69245;BME280;56357;52.304;4.870;2024-01-10T12:28:33;103249.78;;;18.15;44.47
69245;BME280;56357;52.304;4.870;2024-01-10T12:31:00;103245.13;;;18.03;44.14
69245;BME280;56357;52.304;4.870;2024-01-10T12:33:27;103244.94;;;17.98;42.98
69245;BME280;56357;52.304;4.870;2024-01-10T12:36:12;103242.63;;;17.82;43.02
69245;BME280;56357;52.304;4.870;2024-01-10T12:38:38;103248.50;;;18.18;44.44
69245;BME280;56357;52.304;4.870;2024-01-10T12:41:05;103239.25;;;18.55;43.10
69245;BME280;56357;52.304;4.870;2024-01-10T12:43:34;103238.31;;;18.23;43.79
69245;BME280;56357;52.304;4.870;2024-01-10T12:46:11;103243.00;;;18.36;44.43
69245;BME280;56357;52.304;4.870;2024-01-10T12:48:39;103235.19;;;18.07;44.13
69245;BME280;56357;52.304;4.870;2024-01-10T12:51:07;103227.88;;;17.99;46.19
69245;BME280;56357;52.304;4.870;2024-01-10T12:53:39;103231.97;;;17.97;44.16
69245;BME280;56357;52.304;4.870;2024-01-10T12:56:06;103218.44;;;18.32;46.39
69245;BME280;56357;52.304;4.870;2024-01-10T12:58:34;103226.56;;;18.40;45.20
69245;BME280;56357;52.304;4.870;2024-01-10T13:01:04;103228.03;;;18.55;44.74
69245;BME280;56357;52.304;4.870;2024-01-10T13:03:31;103227.31;;;18.28;44.88
69245;BME280;56357;52.304;4.870;2024-01-10T13:05:58;103223.72;;;18.15;45.44